createdAt,value
2023-05-06T00:00:24.058Z,61.81
2023-05-06T00:01:24.037Z,61.78
2023-05-06T00:02:24.132Z,61.46
2023-05-06T00:03:24.193Z,61.46
2023-05-06T00:04:24.106Z,61.35
2023-05-06T00:05:24.078Z,61.17
2023-05-06T00:06:24.045Z,61.17
2023-05-06T00:07:24.039Z,61.02
2023-05-06T00:08:24.045Z,61.02
2023-05-06T00:09:24.052Z,61.38
2023-05-06T00:10:24.060Z,61.74
2023-05-06T00:11:24.025Z,62.04
2023-05-06T00:12:24.061Z,61.73
2023-05-06T00:13:24.076Z,62.05
2023-05-06T00:14:24.067Z,62.05
2023-05-06T00:16:24.084Z,62.00
2023-05-06T00:17:24.213Z,61.68
2023-05-06T00:18:24.090Z,61.68
2023-05-06T00:19:24.039Z,62.04
2023-05-06T00:20:28.586Z,61.74
2023-05-06T00:21:24.114Z,61.68
2023-05-06T00:22:24.082Z,61.18
2023-05-06T00:23:24.107Z,60.92
2023-05-06T00:24:24.072Z,60.92
2023-05-06T00:25:24.102Z,60.73
2023-05-06T00:26:24.364Z,61.72
2023-05-06T00:28:24.120Z,62.02
2023-05-06T00:29:24.085Z,62.03
2023-05-06T00:30:24.138Z,62.21
2023-05-06T00:31:24.136Z,62.32
2023-05-06T00:32:24.105Z,62.26
2023-05-06T00:33:24.155Z,62.22
2023-05-06T00:34:24.128Z,62.23
2023-05-06T00:35:24.113Z,62.27
2023-05-06T00:36:24.133Z,62.19
2023-05-06T00:37:24.093Z,62.19
2023-05-06T00:38:24.159Z,62.04
2023-05-06T00:39:24.120Z,62.04
2023-05-06T00:40:24.122Z,61.93
2023-05-06T00:41:24.120Z,61.93
2023-05-06T00:42:24.113Z,61.86
2023-05-06T00:43:24.170Z,61.73
2023-05-06T00:44:24.134Z,61.73
2023-05-06T00:45:24.101Z,61.64
2023-05-06T00:46:24.181Z,61.54
2023-05-06T00:48:24.144Z,61.54
2023-05-06T00:49:24.196Z,61.57
2023-05-06T00:50:24.139Z,61.57
2023-05-06T00:52:24.179Z,61.55
2023-05-06T00:53:24.176Z,61.55
2023-05-06T00:54:24.192Z,61.55
2023-05-06T00:56:24.201Z,61.39
2023-05-06T00:57:28.831Z,61.10
2023-05-06T00:58:24.132Z,61.10
2023-05-06T00:59:24.216Z,61.27
2023-05-06T01:00:24.212Z,61.40
2023-05-06T01:01:24.218Z,61.10
2023-05-06T01:02:28.478Z,61.16
2023-05-06T01:03:24.324Z,61.16
2023-05-06T01:04:24.285Z,61.21
2023-05-06T01:05:24.318Z,61.32
2023-05-06T01:06:24.198Z,61.13
2023-05-06T01:07:24.213Z,61.19
2023-05-06T01:08:24.164Z,61.19
2023-05-06T01:10:24.230Z,61.09
2023-05-06T01:11:24.184Z,61.21
2023-05-06T01:12:24.264Z,61.36
2023-05-06T01:13:24.175Z,61.45
2023-05-06T01:14:24.235Z,61.40
2023-05-06T01:15:24.247Z,61.40
2023-05-06T01:16:24.222Z,61.31
2023-05-06T01:17:24.279Z,61.31
2023-05-06T01:18:24.233Z,61.35
2023-05-06T01:19:24.225Z,61.34
2023-05-06T01:20:24.247Z,61.34
2023-05-06T01:21:24.208Z,61.40
2023-05-06T01:22:24.263Z,60.96
2023-05-06T01:23:24.279Z,60.96
2023-05-06T01:24:24.246Z,61.16
2023-05-06T01:25:24.305Z,59.92
2023-05-06T01:26:24.239Z,59.92
2023-05-06T01:27:24.288Z,59.92
2023-05-06T01:28:24.267Z,60.06
2023-05-06T01:29:24.272Z,60.06
2023-05-06T01:30:24.289Z,59.92
2023-05-06T01:31:24.327Z,60.17
2023-05-06T01:32:24.302Z,60.50
2023-05-06T01:33:24.280Z,60.81
2023-05-06T01:34:29.016Z,61.00
2023-05-06T01:35:24.300Z,60.87
2023-05-06T01:36:24.272Z,60.78
2023-05-06T01:38:24.303Z,60.79
2023-05-06T01:39:24.304Z,60.81
2023-05-06T01:40:24.326Z,60.80
2023-05-06T01:41:24.278Z,60.93
2023-05-06T01:42:24.263Z,60.93
2023-05-06T01:43:24.280Z,60.59
2023-05-06T01:44:24.308Z,60.50
2023-05-06T01:45:24.319Z,60.60
2023-05-06T01:46:24.394Z,60.82
2023-05-06T01:47:24.282Z,60.87
2023-05-06T01:48:24.309Z,60.92
2023-05-06T01:49:24.321Z,60.82
2023-05-06T01:50:24.286Z,60.82
2023-05-06T01:51:24.363Z,60.80
2023-05-06T01:52:24.324Z,60.76
2023-05-06T01:53:24.328Z,60.76
2023-05-06T01:54:24.356Z,60.53
2023-05-06T01:55:24.325Z,60.53
2023-05-06T01:56:24.388Z,60.44
2023-05-06T01:57:24.370Z,60.01
2023-05-06T01:58:24.339Z,60.03
2023-05-06T01:59:24.353Z,60.03
2023-05-06T02:01:24.461Z,60.09
2023-05-06T02:03:24.526Z,59.92
2023-05-06T02:07:24.397Z,60.04
2023-05-06T02:08:24.336Z,60.06
2023-05-06T02:09:24.419Z,60.48
2023-05-06T02:10:24.407Z,60.48
2023-05-06T02:11:29.209Z,60.60
2023-05-06T02:12:24.368Z,60.60
2023-05-06T02:13:24.376Z,60.57
2023-05-06T02:15:24.414Z,60.39
2023-05-06T02:16:24.405Z,60.37
2023-05-06T02:17:24.436Z,60.61
2023-05-06T02:18:24.435Z,60.61
2023-05-06T02:19:24.418Z,60.79
2023-05-06T02:20:24.393Z,60.88
2023-05-06T02:21:24.382Z,60.88
2023-05-06T02:22:24.411Z,60.77
2023-05-06T02:23:24.453Z,60.62
2023-05-06T02:24:24.412Z,60.55
2023-05-06T02:25:24.439Z,60.48
2023-05-06T02:26:24.389Z,60.42
2023-05-06T02:27:24.435Z,60.28
2023-05-06T02:28:24.413Z,60.20
2023-05-06T02:32:24.506Z,60.05
2023-05-06T02:33:24.449Z,59.97
2023-05-06T02:35:24.468Z,59.93
2023-05-06T02:36:24.435Z,59.94
2023-05-06T02:37:24.421Z,59.90
2023-05-06T02:38:24.462Z,59.74
2023-05-06T02:40:24.462Z,59.76
2023-05-06T02:41:24.474Z,60.24
2023-05-06T02:42:24.479Z,60.24
2023-05-06T02:43:24.496Z,60.91
2023-05-06T02:44:24.468Z,61.50
2023-05-06T02:45:24.497Z,61.50
2023-05-06T02:46:24.534Z,61.54
2023-05-06T02:47:24.482Z,61.54
2023-05-06T02:48:29.388Z,61.46
2023-05-06T02:49:24.487Z,61.46
2023-05-06T02:50:24.466Z,61.42
2023-05-06T02:51:24.482Z,61.48
2023-05-06T02:52:24.509Z,61.68
2023-05-06T02:53:24.516Z,61.68
2023-05-06T02:54:24.499Z,62.14
2023-05-06T02:55:24.485Z,62.48
2023-05-06T02:56:24.508Z,62.83
2023-05-06T02:57:24.528Z,63.06
2023-05-06T02:58:24.528Z,63.51
2023-05-06T02:59:24.516Z,63.66
2023-05-06T03:00:24.515Z,63.66
2023-05-06T03:01:24.536Z,63.66
2023-05-06T03:02:24.537Z,63.59
2023-05-06T03:03:24.506Z,63.59
2023-05-06T03:04:24.609Z,63.35
2023-05-06T03:05:24.483Z,63.35
2023-05-06T03:06:24.515Z,63.43
2023-05-06T03:07:24.546Z,63.43
2023-05-06T03:09:24.553Z,63.66
2023-05-06T03:10:24.575Z,63.65
2023-05-06T03:12:24.582Z,63.94
2023-05-06T03:13:24.552Z,63.88
2023-05-06T03:14:24.560Z,63.65
2023-05-06T03:15:24.569Z,63.58
2023-05-06T03:16:24.556Z,63.41
2023-05-06T03:17:24.564Z,63.26
2023-05-06T03:18:24.496Z,63.26
2023-05-06T03:19:24.551Z,63.25
2023-05-06T03:20:24.597Z,63.31
2023-05-06T03:21:24.598Z,63.44
2023-05-06T03:22:24.576Z,63.58
2023-05-06T03:23:24.593Z,63.58
2023-05-06T03:24:24.564Z,63.73
2023-05-06T03:25:29.604Z,63.97
2023-05-06T03:26:24.542Z,63.97
2023-05-06T03:27:24.566Z,63.93
2023-05-06T03:28:24.555Z,63.97
2023-05-06T03:29:24.573Z,64.35
2023-05-06T03:30:24.599Z,64.41
2023-05-06T03:31:24.642Z,64.41
2023-05-06T03:32:24.801Z,63.99
2023-05-06T03:33:24.604Z,63.99
2023-05-06T03:34:24.590Z,63.82
2023-05-06T03:35:24.596Z,63.93
2023-05-06T03:36:24.575Z,64.20
2023-05-06T03:37:24.613Z,64.83
2023-05-06T03:38:24.635Z,64.83
2023-05-06T03:39:24.561Z,64.73
2023-05-06T03:40:24.611Z,64.91
2023-05-06T03:41:24.655Z,64.91
2023-05-06T03:42:24.629Z,65.12
2023-05-06T03:43:24.592Z,65.32
2023-05-06T03:44:24.575Z,65.52
2023-05-06T03:46:24.628Z,65.57
2023-05-06T03:48:24.624Z,65.60
2023-05-06T03:49:24.617Z,65.50
2023-05-06T03:50:24.615Z,65.33
2023-05-06T03:51:24.622Z,65.31
2023-05-06T03:52:24.621Z,65.17
2023-05-06T03:53:24.636Z,65.32
2023-05-06T03:54:24.633Z,65.73
2023-05-06T03:55:24.634Z,65.48
2023-05-06T03:56:24.696Z,65.48
2023-05-06T03:57:24.633Z,65.36
2023-05-06T03:58:24.654Z,64.67
2023-05-06T03:59:24.781Z,64.34
2023-05-06T04:00:24.637Z,64.15
2023-05-06T04:01:24.648Z,64.03
2023-05-06T04:02:24.670Z,64.03
2023-05-06T04:03:24.728Z,63.71
2023-05-06T04:06:24.689Z,63.22
2023-05-06T04:07:24.617Z,63.04
2023-05-06T04:08:24.664Z,62.95
2023-05-06T04:09:24.665Z,63.13
2023-05-06T04:10:24.647Z,63.13
2023-05-06T04:11:24.700Z,62.98
2023-05-06T04:12:24.665Z,62.90
2023-05-06T04:13:24.677Z,62.90
2023-05-06T04:14:24.717Z,62.95
2023-05-06T04:15:24.723Z,63.17
2023-05-06T04:16:24.828Z,63.20
2023-05-06T04:18:24.655Z,63.03
2023-05-06T04:19:24.691Z,63.29
2023-05-06T04:21:24.722Z,63.56
2023-05-06T04:23:24.707Z,63.68
2023-05-06T04:24:24.708Z,63.64
2023-05-06T04:25:24.766Z,63.54
2023-05-06T04:26:24.663Z,63.54
2023-05-06T04:27:24.765Z,63.20
2023-05-06T04:28:24.753Z,62.60
2023-05-06T04:29:24.752Z,62.40
2023-05-06T04:31:24.742Z,62.97
2023-05-06T04:32:24.759Z,63.20
2023-05-06T04:33:24.756Z,63.20
2023-05-06T04:34:24.726Z,63.24
2023-05-06T04:35:24.759Z,63.24
2023-05-06T04:36:24.915Z,63.49
2023-05-06T04:39:24.737Z,63.49
2023-05-06T04:40:24.763Z,63.59
2023-05-06T04:41:24.790Z,63.59
2023-05-06T04:42:24.758Z,63.57
2023-05-06T04:44:24.764Z,63.57
2023-05-06T04:45:24.809Z,63.58
2023-05-06T04:47:24.768Z,63.62
2023-05-06T04:48:24.746Z,63.62
2023-05-06T04:49:24.790Z,63.65
2023-05-06T04:50:24.739Z,63.59
2023-05-06T04:52:24.750Z,62.94
2023-05-06T04:53:24.806Z,63.07
2023-05-06T04:55:24.819Z,63.03
2023-05-06T04:57:24.798Z,62.89
2023-05-06T05:00:24.776Z,62.64
2023-05-06T05:01:24.823Z,62.69
2023-05-06T05:02:24.899Z,62.58
2023-05-06T05:03:24.937Z,62.58
2023-05-06T05:04:24.857Z,62.56
2023-05-06T05:05:24.784Z,62.29
2023-05-06T05:06:24.827Z,61.86
2023-05-06T05:07:24.855Z,61.54
2023-05-06T05:09:24.817Z,61.29
2023-05-06T05:10:24.810Z,61.29
2023-05-06T05:11:24.872Z,61.51
2023-05-06T05:14:24.843Z,61.28
2023-05-06T05:15:24.878Z,61.28
2023-05-06T05:17:24.934Z,61.52
2023-05-06T05:19:24.864Z,61.59
2023-05-06T05:20:24.826Z,61.59
2023-05-06T05:21:24.891Z,61.43
2023-05-06T05:22:24.867Z,61.43
2023-05-06T05:23:24.856Z,61.29
2023-05-06T05:24:24.850Z,61.08
2023-05-06T05:25:24.867Z,61.08
2023-05-06T05:26:24.843Z,61.14
2023-05-06T05:27:24.869Z,61.08
2023-05-06T05:28:24.895Z,60.86
2023-05-06T05:29:24.904Z,60.86
2023-05-06T05:30:24.867Z,61.10
2023-05-06T05:31:24.916Z,61.32
2023-05-06T05:32:24.927Z,61.86
2023-05-06T05:33:24.934Z,62.37
2023-05-06T05:34:24.901Z,62.61
2023-05-06T05:35:24.898Z,62.14
2023-05-06T05:36:24.849Z,62.14
2023-05-06T05:37:24.891Z,61.46
2023-05-06T05:38:24.915Z,61.46
2023-05-06T05:39:24.883Z,61.14
2023-05-06T05:41:24.911Z,60.79
2023-05-06T05:42:24.927Z,60.94
2023-05-06T05:43:24.913Z,61.05
2023-05-06T05:44:24.876Z,61.12
2023-05-06T05:45:24.908Z,60.95
2023-05-06T05:46:24.970Z,60.75
2023-05-06T05:47:24.975Z,60.75
2023-05-06T05:48:24.924Z,60.54
2023-05-06T05:49:24.908Z,60.31
2023-05-06T05:50:25.307Z,59.95
2023-05-06T05:51:24.930Z,59.95
2023-05-06T05:52:24.935Z,59.66
2023-05-06T05:53:24.984Z,59.50
2023-05-06T05:54:24.962Z,59.29
2023-05-06T05:55:24.942Z,59.11
2023-05-06T05:56:24.971Z,58.82
2023-05-06T05:57:24.918Z,59.10
2023-05-06T05:59:24.986Z,59.07
2023-05-06T06:00:24.995Z,59.11
2023-05-06T06:01:24.977Z,59.13
2023-05-06T06:02:25.017Z,59.13
2023-05-06T06:03:25.036Z,59.02
2023-05-06T06:04:24.990Z,58.50
2023-05-06T06:05:24.970Z,58.54
2023-05-06T06:06:24.995Z,58.32
2023-05-06T06:07:24.996Z,58.06
2023-05-06T06:08:24.966Z,58.06
2023-05-06T06:09:25.012Z,57.53
2023-05-06T06:10:24.951Z,57.53
2023-05-06T06:11:24.976Z,58.00
2023-05-06T06:12:24.969Z,57.48
2023-05-06T06:13:26.596Z,57.47
2023-05-06T06:14:25.016Z,57.47
2023-05-06T06:15:24.968Z,56.71
2023-05-06T06:16:25.048Z,56.49
2023-05-06T06:17:24.997Z,56.46
2023-05-06T06:18:25.079Z,56.46
2023-05-06T06:19:25.021Z,56.05
2023-05-06T06:20:25.015Z,56.27
2023-05-06T06:21:25.011Z,55.87
2023-05-06T06:22:25.042Z,55.64
2023-05-06T06:23:24.974Z,55.47
2023-05-06T06:24:25.038Z,55.30
2023-05-06T06:25:25.085Z,55.01
2023-05-06T06:27:25.500Z,54.45
2023-05-06T06:28:24.986Z,54.45
2023-05-06T06:29:25.030Z,54.37
2023-05-06T06:30:25.010Z,54.50
2023-05-06T06:31:25.062Z,54.50
2023-05-06T06:32:25.051Z,54.49
2023-05-06T06:33:25.048Z,54.59
2023-05-06T06:34:25.058Z,54.59
2023-05-06T06:35:25.084Z,54.90
2023-05-06T06:36:25.281Z,54.36
2023-05-06T06:37:25.068Z,53.97
2023-05-06T06:38:25.074Z,53.25
2023-05-06T06:39:25.084Z,53.12
2023-05-06T06:40:25.064Z,53.00
2023-05-06T06:41:25.021Z,52.51
2023-05-06T06:42:25.693Z,52.61
2023-05-06T06:43:25.076Z,52.40
2023-05-06T06:44:25.043Z,52.31
2023-05-06T06:45:25.101Z,52.16
2023-05-06T06:46:25.148Z,51.70
2023-05-06T06:47:25.186Z,51.34
2023-05-06T06:48:25.103Z,51.04
2023-05-06T06:49:25.037Z,51.04
2023-05-06T06:50:25.072Z,50.73
2023-05-06T06:51:25.092Z,50.10
2023-05-06T06:53:25.093Z,50.03
2023-05-06T06:54:25.050Z,50.09
2023-05-06T06:55:25.104Z,50.34
2023-05-06T06:56:25.117Z,50.45
2023-05-06T06:57:25.128Z,50.45
2023-05-06T06:58:25.142Z,50.74
2023-05-06T06:59:25.090Z,50.74
2023-05-06T07:00:25.113Z,50.78
2023-05-06T07:01:25.167Z,50.78
2023-05-06T07:02:25.112Z,50.80
2023-05-06T07:03:25.128Z,50.97
2023-05-06T07:04:25.802Z,50.39
2023-05-06T07:05:25.124Z,50.39
2023-05-06T07:06:25.166Z,51.72
2023-05-06T07:07:25.108Z,51.72
2023-05-06T07:08:25.130Z,52.37
2023-05-06T07:09:25.163Z,52.74
2023-05-06T07:10:25.090Z,52.74
2023-05-06T07:11:25.166Z,52.93
2023-05-06T07:12:25.163Z,54.07
2023-05-06T07:13:25.189Z,54.24
2023-05-06T07:14:25.160Z,54.24
2023-05-06T07:15:25.151Z,54.64
2023-05-06T07:16:25.177Z,55.14
2023-05-06T07:17:25.190Z,56.63
2023-05-06T07:18:25.189Z,57.14
2023-05-06T07:19:25.157Z,57.14
2023-05-06T07:20:25.175Z,57.31
2023-05-06T07:21:25.156Z,57.14
2023-05-06T07:22:25.135Z,56.98
2023-05-06T07:23:25.156Z,57.04
2023-05-06T07:24:25.173Z,57.29
2023-05-06T07:25:25.171Z,57.29
2023-05-06T07:26:25.186Z,57.36
2023-05-06T07:27:25.201Z,57.16
2023-05-06T07:28:25.133Z,57.42
2023-05-06T07:29:25.221Z,57.25
2023-05-06T07:30:25.252Z,57.56
2023-05-06T07:31:25.200Z,57.79
2023-05-06T07:32:25.241Z,58.01
2023-05-06T07:33:25.225Z,58.07
2023-05-06T07:34:25.195Z,58.07
2023-05-06T07:35:25.186Z,57.38
2023-05-06T07:36:25.458Z,57.38
2023-05-06T07:37:25.186Z,57.12
2023-05-06T07:38:25.222Z,56.67
2023-05-06T07:39:25.236Z,56.67
2023-05-06T07:40:25.236Z,56.46
2023-05-06T07:42:25.259Z,56.20
2023-05-06T07:43:25.190Z,56.30
2023-05-06T07:44:25.180Z,56.68
2023-05-06T07:46:25.353Z,57.49
2023-05-06T07:47:25.372Z,57.43
2023-05-06T07:48:25.279Z,57.21
2023-05-06T07:49:25.221Z,56.46
2023-05-06T07:50:25.241Z,55.92
2023-05-06T07:51:25.222Z,55.83
2023-05-06T07:52:25.269Z,55.83
2023-05-06T07:53:25.264Z,55.33
2023-05-06T07:54:25.230Z,54.85
2023-05-06T07:55:25.281Z,54.88
2023-05-06T07:56:25.288Z,54.09
2023-05-06T07:57:25.246Z,54.09
2023-05-06T07:58:25.282Z,54.02
2023-05-06T07:59:25.297Z,53.67
2023-05-06T08:00:25.260Z,53.62
2023-05-06T08:01:25.289Z,53.21
2023-05-06T08:02:25.379Z,53.01
2023-05-06T08:03:25.445Z,53.14
2023-05-06T08:04:25.287Z,53.14
2023-05-06T08:05:25.284Z,53.21
2023-05-06T08:06:25.310Z,53.31
2023-05-06T08:07:25.321Z,53.58
2023-05-06T08:08:25.322Z,53.26
2023-05-06T08:09:25.288Z,53.26
2023-05-06T08:10:25.262Z,52.89
2023-05-06T08:11:25.340Z,52.52
2023-05-06T08:12:25.279Z,51.55
2023-05-06T08:13:25.380Z,51.55
2023-05-06T08:14:25.317Z,51.04
2023-05-06T08:15:25.296Z,51.15
2023-05-06T08:16:25.766Z,51.60
2023-05-06T08:17:25.381Z,51.60
2023-05-06T08:18:26.086Z,51.64
2023-05-06T08:19:25.337Z,51.64
2023-05-06T08:20:25.346Z,51.15
2023-05-06T08:21:25.309Z,51.22
2023-05-06T08:22:25.376Z,50.40
2023-05-06T08:23:25.276Z,50.40
2023-05-06T08:24:25.328Z,50.13
2023-05-06T08:25:25.331Z,49.52
2023-05-06T08:26:25.326Z,49.52
2023-05-06T08:27:26.848Z,49.42
2023-05-06T08:28:25.487Z,49.77
2023-05-06T08:29:25.361Z,49.77
2023-05-06T08:30:25.362Z,50.59
2023-05-06T08:31:25.398Z,50.09
2023-05-06T08:32:25.540Z,50.09
2023-05-06T08:33:25.338Z,49.13
2023-05-06T08:34:25.354Z,49.53
2023-05-06T08:35:25.355Z,49.27
2023-05-06T08:36:25.370Z,49.27
2023-05-06T08:37:25.368Z,48.80
2023-05-06T08:38:25.554Z,48.42
2023-05-06T08:39:25.374Z,48.40
2023-05-06T08:40:25.386Z,48.40
2023-05-06T08:41:25.357Z,48.80
2023-05-06T08:42:25.367Z,49.48
2023-05-06T08:43:25.396Z,49.48
2023-05-06T08:44:25.394Z,47.92
2023-05-06T08:45:27.408Z,47.92
2023-05-06T08:46:25.368Z,46.55
2023-05-06T08:47:25.420Z,45.21
2023-05-06T08:48:25.411Z,45.21
2023-05-06T08:49:25.342Z,45.77
2023-05-06T08:50:25.407Z,45.90
2023-05-06T08:51:26.137Z,46.05
2023-05-06T08:52:25.434Z,46.05
2023-05-06T08:53:25.433Z,45.53
2023-05-06T08:54:25.377Z,45.53
2023-05-06T08:55:26.273Z,46.17
2023-05-06T08:56:25.429Z,46.10
2023-05-06T08:57:25.384Z,46.10
2023-05-06T08:58:25.438Z,46.45
2023-05-06T08:59:25.401Z,46.52
2023-05-06T09:00:25.412Z,45.57
2023-05-06T09:01:25.478Z,45.74
2023-05-06T09:02:25.503Z,45.74
2023-05-06T09:03:25.512Z,45.76
2023-05-06T09:04:25.430Z,45.12
2023-05-06T09:05:25.444Z,45.06
2023-05-06T09:06:25.537Z,44.05
2023-05-06T09:07:25.432Z,44.05
2023-05-06T09:08:25.455Z,43.56
2023-05-06T09:09:25.487Z,43.01
2023-05-06T09:10:25.477Z,43.25
2023-05-06T09:11:25.478Z,43.25
2023-05-06T09:12:25.423Z,43.02
2023-05-06T09:13:25.464Z,42.63
2023-05-06T09:14:25.486Z,42.28
2023-05-06T09:15:25.449Z,42.68
2023-05-06T09:16:25.517Z,42.26
2023-05-06T09:17:25.526Z,42.79
2023-05-06T09:18:25.488Z,41.92
2023-05-06T09:19:25.486Z,41.92
2023-05-06T09:20:25.455Z,41.62
2023-05-06T09:21:25.496Z,41.06
2023-05-06T09:22:25.484Z,40.02
2023-05-06T09:23:25.434Z,40.02
2023-05-06T09:24:25.548Z,39.60
2023-05-06T09:25:25.505Z,39.60
2023-05-06T09:26:25.503Z,39.93
2023-05-06T09:27:25.500Z,39.31
2023-05-06T09:28:25.489Z,39.03
2023-05-06T09:29:25.548Z,39.28
2023-05-06T09:30:25.523Z,39.31
2023-05-06T09:31:25.584Z,39.23
2023-05-06T09:32:26.465Z,38.93
2023-05-06T09:33:25.507Z,38.93
2023-05-06T09:35:25.536Z,37.76
2023-05-06T09:36:25.479Z,38.24
2023-05-06T09:37:25.551Z,38.66
2023-05-06T09:38:25.657Z,38.66
2023-05-06T09:39:25.522Z,38.65
2023-05-06T09:40:25.538Z,39.03
2023-05-06T09:41:25.676Z,38.97
2023-05-06T09:42:25.568Z,39.85
2023-05-06T09:43:25.569Z,39.85
2023-05-06T09:44:25.577Z,39.66
2023-05-06T09:45:25.536Z,39.66
2023-05-06T09:46:25.559Z,40.31
2023-05-06T09:47:25.616Z,40.60
2023-05-06T09:48:25.571Z,40.65
2023-05-06T09:49:25.564Z,41.61
2023-05-06T09:50:25.538Z,41.81
2023-05-06T09:51:25.549Z,41.50
2023-05-06T09:52:25.590Z,41.25
2023-05-06T09:53:25.563Z,40.96
2023-05-06T09:54:25.553Z,40.26
2023-05-06T09:55:25.587Z,39.54
2023-05-06T09:57:25.588Z,39.19
2023-05-06T09:59:25.573Z,39.06
2023-05-06T10:01:35.458Z,39.48
2023-05-06T10:02:25.708Z,39.74
2023-05-06T10:03:25.849Z,39.93
2023-05-06T10:04:26.439Z,39.21
2023-05-06T10:05:25.661Z,39.21
2023-05-06T10:06:25.600Z,39.13
2023-05-06T10:07:25.609Z,38.77
2023-05-06T10:08:25.632Z,38.99
2023-05-06T10:09:26.645Z,38.47
2023-05-06T10:10:25.698Z,38.47
2023-05-06T10:11:25.629Z,38.78
2023-05-06T10:12:25.649Z,38.78
2023-05-06T10:13:25.663Z,39.12
2023-05-06T10:14:25.655Z,39.12
2023-05-06T10:15:25.623Z,38.03
2023-05-06T10:16:25.650Z,37.52
2023-05-06T10:17:25.656Z,37.58
2023-05-06T10:18:25.619Z,37.58
2023-05-06T10:19:25.660Z,38.35
2023-05-06T10:20:25.639Z,38.71
2023-05-06T10:21:25.658Z,39.15
2023-05-06T10:22:25.647Z,38.48
2023-05-06T10:23:25.630Z,38.48
2023-05-06T10:24:25.691Z,38.57
2023-05-06T10:25:25.681Z,38.57
2023-05-06T10:26:25.684Z,39.05
2023-05-06T10:27:25.694Z,39.57
2023-05-06T10:28:31.013Z,39.57
2023-05-06T10:29:25.654Z,39.62
2023-05-06T10:30:25.682Z,40.04
2023-05-06T10:31:25.726Z,40.40
2023-05-06T10:32:25.705Z,40.40
2023-05-06T10:33:25.658Z,40.67
2023-05-06T10:34:25.663Z,40.26
2023-05-06T10:35:25.709Z,40.58
2023-05-06T10:36:25.659Z,40.31
2023-05-06T10:37:25.693Z,39.90
2023-05-06T10:38:25.689Z,40.09
2023-05-06T10:39:25.735Z,40.09
2023-05-06T10:40:25.700Z,40.25
2023-05-06T10:41:25.678Z,40.25
2023-05-06T10:42:25.707Z,39.66
2023-05-06T10:43:25.676Z,39.84
2023-05-06T10:44:25.692Z,39.84
2023-05-06T10:45:25.718Z,39.96
2023-05-06T10:46:26.847Z,40.30
2023-05-06T10:47:25.739Z,40.30
2023-05-06T10:48:25.721Z,39.72
2023-05-06T10:49:25.692Z,40.14
2023-05-06T10:50:25.701Z,40.36
2023-05-06T10:51:25.718Z,40.35
2023-05-06T10:53:25.757Z,40.61
2023-05-06T10:54:25.690Z,40.61
2023-05-06T10:55:25.761Z,40.53
2023-05-06T10:56:25.750Z,40.33
2023-05-06T10:57:25.709Z,40.33
2023-05-06T10:58:25.734Z,40.48
2023-05-06T10:59:25.797Z,40.43
2023-05-06T11:00:25.732Z,39.50
2023-05-06T11:01:25.785Z,39.50
2023-05-06T11:02:25.880Z,39.24
2023-05-06T11:03:25.890Z,39.19
2023-05-06T11:04:25.784Z,39.19
2023-05-06T11:05:25.753Z,39.84
2023-05-06T11:06:25.752Z,39.98
2023-05-06T11:07:25.709Z,39.98
2023-05-06T11:08:25.779Z,39.15
2023-05-06T11:09:25.801Z,38.79
2023-05-06T11:10:25.719Z,38.42
2023-05-06T11:11:25.754Z,38.71
2023-05-06T11:13:25.896Z,40.32
2023-05-06T11:14:25.812Z,39.56
2023-05-06T11:15:25.772Z,40.09
2023-05-06T11:16:25.808Z,39.70
2023-05-06T11:17:25.819Z,39.70
2023-05-06T11:18:25.780Z,39.38
2023-05-06T11:19:25.744Z,39.07
2023-05-06T11:20:25.751Z,38.67
2023-05-06T11:21:25.824Z,37.88
2023-05-06T11:22:25.814Z,37.29
2023-05-06T11:23:26.982Z,36.75
2023-05-06T11:24:25.793Z,36.75
2023-05-06T11:25:25.809Z,36.88
2023-05-06T11:26:25.831Z,36.88
2023-05-06T11:27:25.825Z,36.51
2023-05-06T11:28:25.772Z,36.51
2023-05-06T11:29:25.807Z,36.99
2023-05-06T11:30:25.849Z,36.97
2023-05-06T11:31:25.877Z,36.80
2023-05-06T11:32:25.869Z,36.58
2023-05-06T11:33:25.819Z,36.58
2023-05-06T11:34:25.807Z,35.94
2023-05-06T11:35:25.833Z,35.97
2023-05-06T11:36:25.795Z,35.82
2023-05-06T11:37:25.853Z,36.02
2023-05-06T11:39:25.834Z,35.76
2023-05-06T11:40:25.850Z,35.59
2023-05-06T11:41:25.809Z,36.22
2023-05-06T11:42:25.860Z,34.93
2023-05-06T11:43:25.815Z,34.93
2023-05-06T11:44:25.915Z,35.90
2023-05-06T11:46:25.849Z,35.06
2023-05-06T11:47:25.900Z,34.58
2023-05-06T11:48:25.847Z,34.01
2023-05-06T11:49:25.849Z,34.52
2023-05-06T11:50:25.907Z,34.20
2023-05-06T11:51:25.899Z,34.70
2023-05-06T11:52:25.898Z,33.80
2023-05-06T11:53:25.883Z,33.80
2023-05-06T11:54:25.863Z,34.45
2023-05-06T11:55:25.919Z,35.44
2023-05-06T11:56:25.904Z,35.18
2023-05-06T11:57:25.899Z,35.18
2023-05-06T11:58:25.916Z,35.76
2023-05-06T11:59:25.872Z,35.14
2023-05-06T12:00:27.224Z,34.89
2023-05-06T12:02:25.928Z,34.63
2023-05-06T12:03:26.060Z,34.71
2023-05-06T12:04:26.011Z,35.08
2023-05-06T12:05:25.934Z,35.08
2023-05-06T12:06:25.910Z,34.67
2023-05-06T12:07:25.868Z,34.67
2023-05-06T12:09:25.926Z,34.42
2023-05-06T12:10:25.935Z,34.88
2023-05-06T12:11:25.961Z,35.51
2023-05-06T12:13:25.935Z,35.04
2023-05-06T12:14:25.964Z,34.58
2023-05-06T12:15:25.920Z,34.80
2023-05-06T12:16:26.031Z,34.84
2023-05-06T12:17:25.999Z,34.48
2023-05-06T12:18:25.977Z,34.28
2023-05-06T12:19:25.957Z,34.26
2023-05-06T12:21:25.989Z,34.64
2023-05-06T12:22:25.986Z,34.78
2023-05-06T12:23:25.962Z,34.78
2023-05-06T12:24:25.970Z,35.39
2023-05-06T12:25:25.949Z,35.39
2023-05-06T12:26:25.975Z,35.82
2023-05-06T12:27:25.950Z,35.90
2023-05-06T12:28:25.955Z,36.22
2023-05-06T12:29:25.983Z,36.35
2023-05-06T12:30:25.989Z,36.38
2023-05-06T12:31:26.011Z,36.38
2023-05-06T12:32:26.037Z,36.51
2023-05-06T12:33:25.983Z,37.08
2023-05-06T12:34:25.999Z,36.19
2023-05-06T12:35:26.038Z,36.60
2023-05-06T12:36:25.999Z,37.01
2023-05-06T12:37:27.408Z,36.58
2023-05-06T12:38:25.990Z,36.58
2023-05-06T12:39:26.033Z,35.53
2023-05-06T12:40:26.026Z,35.46
2023-05-06T12:41:25.991Z,36.17
2023-05-06T12:42:26.034Z,35.58
2023-05-06T12:43:26.018Z,35.58
2023-05-06T12:44:26.007Z,34.91
2023-05-06T12:45:26.026Z,33.67
2023-05-06T12:46:26.092Z,33.67
2023-05-06T12:47:26.346Z,33.95
2023-05-06T12:48:26.032Z,34.50
2023-05-06T12:49:26.053Z,34.48
2023-05-06T12:50:26.017Z,34.79
2023-05-06T12:51:26.022Z,34.79
2023-05-06T12:52:26.070Z,34.46
2023-05-06T12:53:26.011Z,34.85
2023-05-06T12:54:26.028Z,34.77
2023-05-06T12:55:26.067Z,35.38
2023-05-06T12:56:26.062Z,35.58
2023-05-06T12:57:26.057Z,35.05
2023-05-06T12:58:26.070Z,34.99
2023-05-06T12:59:26.042Z,35.58
2023-05-06T13:01:26.158Z,35.76
2023-05-06T13:02:26.121Z,36.21
2023-05-06T13:03:26.134Z,35.44
2023-05-06T13:04:26.070Z,35.86
2023-05-06T13:05:26.086Z,36.24
2023-05-06T13:06:26.131Z,36.71
2023-05-06T13:07:26.068Z,36.78
2023-05-06T13:08:26.116Z,36.75
2023-05-06T13:09:26.077Z,37.10
2023-05-06T13:10:26.079Z,36.99
2023-05-06T13:11:26.104Z,36.72
2023-05-06T13:12:26.058Z,36.72
2023-05-06T13:13:26.147Z,36.47
2023-05-06T13:14:27.632Z,36.90
2023-05-06T13:15:26.070Z,36.90
2023-05-06T13:16:26.214Z,37.13
2023-05-06T13:17:26.243Z,37.34
2023-05-06T13:18:26.115Z,37.64
2023-05-06T13:20:26.126Z,37.70
2023-05-06T13:21:26.110Z,38.06
2023-05-06T13:22:26.134Z,38.06
2023-05-06T13:23:26.084Z,38.29
2023-05-06T13:24:26.106Z,38.51
2023-05-06T13:25:26.140Z,38.03
2023-05-06T13:26:26.124Z,38.08
2023-05-06T13:27:26.106Z,38.23
2023-05-06T13:28:26.130Z,37.99
2023-05-06T13:29:26.142Z,37.35
2023-05-06T13:30:26.154Z,37.15
2023-05-06T13:31:26.207Z,37.35
2023-05-06T13:32:26.184Z,37.60
2023-05-06T13:33:26.147Z,37.18
2023-05-06T13:34:26.168Z,36.87
2023-05-06T13:35:26.207Z,36.96
2023-05-06T13:36:26.099Z,37.05
2023-05-06T13:37:26.147Z,37.49
2023-05-06T13:38:26.136Z,37.49
2023-05-06T13:39:26.163Z,37.35
2023-05-06T13:40:26.166Z,36.78
2023-05-06T13:41:26.124Z,37.35
2023-05-06T13:42:26.181Z,36.69
2023-05-06T13:43:26.183Z,36.60
2023-05-06T13:44:26.133Z,36.60
2023-05-06T13:45:26.441Z,36.43
2023-05-06T13:46:26.173Z,36.69
2023-05-06T13:47:26.246Z,36.77
2023-05-06T13:48:26.137Z,36.77
2023-05-06T13:50:26.172Z,37.46
2023-05-06T13:51:27.826Z,37.74
2023-05-06T13:52:26.189Z,37.17
2023-05-06T13:53:26.178Z,37.17
2023-05-06T13:54:26.172Z,37.70
2023-05-06T13:55:26.178Z,37.25